Flight Track Log - Related Links

Times and Time Zones

All times are in EDT time to prevent confusion due to time zone crossing. See the CTL15 flight status page for this flight to view local times or setup timezone preferences in your user account.

Time Position Orientation Groundspeed Altitude Reporting Facility
EDT Latitude Longitude Course Direction KTS MPH feet Rate Location/Type
Fri 07:29:30 PM 40.0758 -83.0631 46° Northeast 98 113 1,100  Level Indianapolis Center
Fri 07:30:49 PM 40.1058 -83.0228 46° Northeast 126 145 2,500 981 Climbing Indianapolis Center
Fri 07:31:14 PM 40.1139 -83.0111 48° Northeast 122 140 2,800 885 Climbing Indianapolis Center
Fri 07:31:50 PM 40.1356 -83.0153 352° North 136 157 3,400 984 Climbing Indianapolis Center
Fri 07:32:15 PM 40.1439 -83.0292 308° West 135 155 3,800 885 Climbing Indianapolis Center
Fri 07:32:51 PM 40.1406 -83.0678 264° West 148 170 4,300 581 Climbing Indianapolis Center
Fri 07:33:17 PM 40.1389 -83.0819 261° West 145 167 4,400 327 Climbing Indianapolis Center
Fri 07:33:46 PM 40.1350 -83.1161 262° West 153 176 4,600 387 Climbing Indianapolis Center
Fri 07:34:19 PM 40.1331 -83.1383 263° West 150 173 4,800 393 Climbing Indianapolis Center
Fri 07:34:47 PM 40.1289 -83.1756 262° West 161 185 5,000 492 Climbing Indianapolis Center
Fri 07:35:20 PM 40.1244 -83.2064 259° West 158 182 5,300 500 Climbing Indianapolis Center
Fri 07:35:47 PM 40.1206 -83.2344 260° West 162 186 5,500 387 Climbing Indianapolis Center
Fri 07:36:22 PM 40.1161 -83.2639 259° West 160 184 5,700 436 Climbing Indianapolis Center
Fri 07:36:42 PM 40.1128 -83.2853 258° West 159 183 5,900 197 Climbing Indianapolis Center
Fri 07:37:23 PM 40.1108 -83.3236 266° West 162 186 5,900 -98 Level Indianapolis Center
Fri 07:37:43 PM 40.1103 -83.3478 268° West 175 201 5,800  Descending Indianapolis Center
Fri 07:38:25 PM 40.1106 -83.3886 271° West 171 197 5,900 98 Climbing Indianapolis Center
Fri 07:38:44 PM 40.1100 -83.4131 268° West 176 203 5,900  Level Indianapolis Center
Fri 07:39:26 PM 40.1092 -83.4531 268° West 175 201 5,900  Level Indianapolis Center
Fri 07:39:45 PM 40.1072 -83.4811 265° West 179 206 5,900  Level Indianapolis Center
Fri 07:40:28 PM 40.1053 -83.5181 266° West 178 205 5,900  Level Indianapolis Center
Fri 07:40:46 PM 40.1025 -83.5458 263° West 177 204 5,900  Level Indianapolis Center
Fri 07:41:30 PM 40.0981 -83.5814 261° West 176 203 5,900 -91 Level Indianapolis Center
Fri 07:41:52 PM 40.0953 -83.6133 264° West 176 203 5,800 98 Descending Indianapolis Center
Fri 07:42:31 PM 40.0939 -83.6444 267° West 175 201 6,000 98 Climbing Indianapolis Center
Fri 07:42:53 PM 40.0928 -83.6756 267° West 170 196 5,900 -97 Descending Indianapolis Center
Fri 07:43:33 PM 40.0922 -83.7169 269° West 173 199 5,900  Level Indianapolis Center
Fri 07:43:54 PM 40.0922 -83.7411 270° West 179 206 5,900 197 Level Indianapolis Center
Fri 07:44:34 PM 40.0992 -83.7819 283° West 176 203 6,100 98 Climbing Indianapolis Center
Fri 07:44:55 PM 40.1042 -83.8053 286° West 175 201 6,000 -97 Descending Indianapolis Center
Fri 07:45:36 PM 40.1131 -83.8431 287° West 176 203 6,000 -90 Level Indianapolis Center
Fri 07:46:02 PM 40.1181 -83.8697 284° West 166 191 5,900  Descending Indianapolis Center
Fri 07:46:38 PM 40.1256 -83.9000 288° West 169 194 6,000  Climbing Indianapolis Center
Fri 07:46:56 PM 40.1289 -83.9203 282° West 153 176 5,900 -98 Descending Indianapolis Center
Fri 07:47:39 PM 40.1297 -83.9497 272° West 153 176 5,900  Level Indianapolis Center
Fri 07:48:09 PM 40.1267 -83.9800 262° West 138 159 5,900  Level Indianapolis Center
Fri 07:48:41 PM 40.1247 -83.9997 263° West 142 163 5,900 111 Level Indianapolis Center
Fri 07:49:03 PM 40.1208 -84.0256 259° West 140 161 6,000  Climbing Indianapolis Center
Fri 07:49:42 PM 40.1147 -84.0469 250° West 136 157 5,900  Descending Indianapolis Center
Fri 07:50:10 PM 40.1006 -84.0722 234° Southwest 145 167 6,000 97 Climbing Indianapolis Center
Fri 07:50:44 PM 40.0914 -84.0925 239° Southwest 143 165 6,000 -98 Level Indianapolis Center
Fri 07:51:11 PM 40.0756 -84.1261 238° Southwest 166 191 5,900 -98 Descending Indianapolis Center
Fri 07:51:45 PM 40.0656 -84.1439 234° Southwest 157 181 5,900  Level Indianapolis Center
Fri 07:52:12 PM 40.0394 -84.1569 201° Southwest 161 185 5,900  Level Indianapolis Center
Fri 07:52:47 PM 40.0233 -84.1572 181° South 157 181 5,900  Level Indianapolis Center
Fri 07:53:12 PM 39.9950 -84.1619 187° South 158 182 5,900  Level Indianapolis Center
Fri 07:53:48 PM 39.9714 -84.1622 181° South 158 182 5,900  Level Indianapolis Center
Fri 07:54:13 PM 39.9531 -84.1644 185° South 152 175 5,900  Level Indianapolis Center
Fri 07:54:50 PM 39.9286 -84.1644 180° South 154 177 5,900  Level Indianapolis Center
Fri 07:55:14 PM 39.9092 -84.1642 179° South 157 181 5,900 -492 Level Indianapolis Center
Fri 07:55:51 PM 39.8833 -84.1639 180° South 156 180 5,400 -889 Descending Indianapolis Center
Fri 07:56:08 PM 39.8672 -84.1639 180° South 185 213 5,100 -774 Descending Indianapolis Center
Fri 07:56:53 PM 39.8322 -84.1633 179° South 169 194 4,600 -689 Descending Indianapolis Center
Fri 07:57:09 PM 39.8147 -84.1653 185° South 191 220 4,400 -787 Descending Indianapolis Center
Fri 07:57:54 PM 39.7806 -84.1658 181° South 179 206 3,800 -900 Descending Indianapolis Center
Fri 07:58:09 PM 39.7664 -84.1669 183° South 179 206 3,500 -774 Descending Indianapolis Center
Fri 07:58:56 PM 39.7328 -84.1692 183° South 178 205 3,000 -310 Descending Indianapolis Center
Fri 08:00:05 PM 39.6836 -84.1806 190° South 139 160 2,900 -293 Descending Indianapolis Center
Fri 08:00:59 PM 39.6567 -84.1889 193° South 146 168 2,400 -522 Descending Indianapolis Center
Fri 08:02:00 PM 39.6200 -84.2039 197° South 139 160 1,900 -492 Descending Indianapolis Center

Login

Don't have an account? Register now (free) for customized features, flight alerts, and more!